createdAt,value
2019-02-12T00:00:21.649Z,2
2019-02-12T00:01:23.758Z,2
2019-02-12T00:02:25.878Z,2
2019-02-12T00:03:28.001Z,2.1
2019-02-12T00:04:30.499Z,2.1
2019-02-12T00:05:32.635Z,2
2019-02-12T00:06:34.759Z,2.1
2019-02-12T00:07:36.859Z,2.1
2019-02-12T00:08:39.258Z,2.1
2019-02-12T00:09:42.007Z,2
2019-02-12T00:10:44.137Z,2
2019-02-12T00:11:47.541Z,2.1
2019-02-12T00:12:49.942Z,2.1
2019-02-12T00:13:52.107Z,2.1
2019-02-12T00:14:54.926Z,2.1
2019-02-12T00:15:57.495Z,2.1
2019-02-12T00:16:59.882Z,2.1
2019-02-12T00:18:02.382Z,2.1
2019-02-12T00:19:04.511Z,2.1
2019-02-12T00:20:06.954Z,2.1
2019-02-12T00:21:10.567Z,2.1
2019-02-12T00:22:12.976Z,2.1
2019-02-12T00:23:15.685Z,2.1
2019-02-12T00:24:18.181Z,2
2019-02-12T00:25:20.318Z,2
2019-02-12T00:26:22.706Z,2
2019-02-12T00:27:24.817Z,2.1
2019-02-12T00:28:27.341Z,2
2019-02-12T00:29:29.756Z,2
2019-02-12T00:30:31.860Z,2.1
2019-02-12T00:31:33.963Z,2.1
2019-02-12T00:32:36.116Z,2.1
2019-02-12T00:33:38.243Z,2.1
2019-02-12T00:34:40.642Z,2.1
2019-02-12T00:35:42.753Z,2.1
2019-02-12T00:36:44.876Z,2.1
2019-02-12T00:37:47.277Z,2.1
2019-02-12T00:38:50.305Z,2.1
2019-02-12T00:39:52.708Z,2.1
2019-02-12T00:40:55.135Z,2.2
2019-02-12T00:41:57.267Z,2.2
2019-02-12T00:42:59.386Z,2.2
2019-02-12T00:44:01.775Z,2.2
2019-02-12T00:45:04.497Z,2.2
2019-02-12T00:46:06.914Z,2.2
2019-02-12T00:47:09.012Z,2.2
2019-02-12T00:48:11.147Z,2.2
2019-02-12T00:49:13.270Z,2.1
2019-02-12T00:50:15.362Z,2.2
2019-02-12T00:51:19.098Z,2.2
2019-02-12T00:52:21.218Z,2.2
2019-02-12T00:53:23.400Z,2.2
2019-02-12T00:54:26.266Z,2.2
2019-02-12T00:55:28.432Z,2.2
2019-02-12T00:56:30.946Z,2.2
2019-02-12T00:57:33.053Z,2.2
2019-02-12T00:58:35.730Z,2.2
2019-02-12T00:59:37.851Z,2.2
2019-02-12T01:00:40.002Z,2.2
2019-02-12T01:01:42.450Z,2.2
2019-02-12T01:02:45.205Z,2.2
2019-02-12T01:03:47.370Z,2.2
2019-02-12T01:04:50.153Z,2.3
2019-02-12T01:05:52.314Z,2.2
2019-02-12T01:06:54.414Z,2.2
2019-02-12T01:07:56.583Z,2.2
2019-02-12T01:08:58.694Z,2.2
2019-02-12T01:10:00.861Z,2.2
2019-02-12T01:11:02.961Z,2.2
2019-02-12T01:12:05.101Z,2.3
2019-02-12T01:13:07.205Z,2.3
2019-02-12T01:14:09.599Z,2.3
2019-02-12T01:15:11.986Z,2.3
2019-02-12T01:16:14.115Z,2.3
2019-02-12T01:17:16.217Z,2.3
2019-02-12T01:18:18.625Z,2.3
2019-02-12T01:19:20.742Z,2.3
2019-02-12T01:20:23.129Z,2.3
2019-02-12T01:21:27.411Z,2.3
2019-02-12T01:22:29.811Z,2.3
2019-02-12T01:23:31.917Z,2.3
2019-02-12T01:24:34.322Z,2.3
2019-02-12T01:25:36.728Z,2.3
2019-02-12T01:26:38.830Z,2.3
2019-02-12T01:27:40.958Z,2.4
2019-02-12T01:28:43.069Z,2.4
2019-02-12T01:29:45.177Z,2.5
2019-02-12T01:30:47.585Z,2.5
2019-02-12T01:31:50.118Z,2.5
2019-02-12T01:32:52.519Z,2.5
2019-02-12T01:33:54.662Z,2.5
2019-02-12T01:34:57.818Z,2.5
2019-02-12T01:35:59.918Z,2.5
2019-02-12T01:37:02.046Z,2.5
2019-02-12T01:38:04.479Z,2.5
2019-02-12T01:39:07.267Z,2.5
2019-02-12T01:40:09.383Z,2.5
2019-02-12T01:41:11.519Z,2.5
2019-02-12T01:42:13.907Z,2.5
2019-02-12T01:43:16.018Z,2.5
2019-02-12T01:44:18.142Z,2.5
2019-02-12T01:45:20.274Z,2.5
2019-02-12T01:46:22.397Z,2.5
2019-02-12T01:47:24.502Z,2.5
2019-02-12T01:48:27.011Z,2.5
2019-02-12T01:49:29.135Z,2.5
2019-02-12T01:50:31.263Z,2.6
2019-02-12T01:51:37.022Z,2.6
2019-02-12T01:52:39.418Z,2.6
2019-02-12T01:53:42.207Z,2.6
2019-02-12T01:54:44.607Z,2.6
2019-02-12T01:55:46.730Z,2.6
2019-02-12T01:56:48.828Z,2.6
2019-02-12T01:57:51.255Z,2.6
2019-02-12T01:58:53.368Z,2.6
2019-02-12T01:59:55.474Z,2.6
2019-02-12T02:00:57.890Z,2.6
2019-02-12T02:02:00.280Z,2.6
2019-02-12T02:03:02.788Z,2.6
2019-02-12T02:04:05.206Z,2.6
2019-02-12T02:05:07.335Z,2.6
2019-02-12T02:06:09.448Z,2.6
2019-02-12T02:07:11.839Z,2.6
2019-02-12T02:08:13.964Z,2.7
2019-02-12T02:09:16.360Z,2.7
2019-02-12T02:10:18.494Z,2.7
2019-02-12T02:11:20.887Z,2.7
2019-02-12T02:12:23.011Z,2.7
2019-02-12T02:13:25.103Z,2.7
2019-02-12T02:14:27.219Z,2.7
2019-02-12T02:15:29.623Z,2.7
2019-02-12T02:16:31.736Z,2.7
2019-02-12T02:17:34.262Z,2.7
2019-02-12T02:18:36.358Z,2.7
2019-02-12T02:19:38.480Z,2.7
2019-02-12T02:20:41.007Z,2.7
2019-02-12T02:21:46.040Z,2.7
2019-02-12T02:22:48.139Z,2.7
2019-02-12T02:23:50.554Z,2.8
2019-02-12T02:24:53.327Z,2.8
2019-02-12T02:25:55.441Z,2.8
2019-02-12T02:26:57.568Z,2.7
2019-02-12T02:27:59.691Z,2.7
2019-02-12T02:29:01.790Z,2.8
2019-02-12T02:30:04.257Z,2.8
2019-02-12T02:31:06.683Z,2.8
2019-02-12T02:32:09.098Z,2.8
2019-02-12T02:33:11.601Z,2.8
2019-02-12T02:34:13.710Z,2.8
2019-02-12T02:35:16.883Z,2.7
2019-02-12T02:36:19.284Z,2.8
2019-02-12T02:37:21.696Z,2.8
2019-02-12T02:38:24.096Z,2.8
2019-02-12T02:39:26.231Z,2.8
2019-02-12T02:40:28.785Z,2.8
2019-02-12T02:41:31.956Z,2.8
2019-02-12T02:42:34.088Z,2.8
2019-02-12T02:43:36.272Z,2.8
2019-02-12T02:44:38.381Z,2.8
2019-02-12T02:45:40.503Z,2.8
2019-02-12T02:46:42.950Z,2.8
2019-02-12T02:47:45.083Z,2.8
2019-02-12T02:48:47.915Z,2.8
2019-02-12T02:49:50.062Z,2.8
2019-02-12T02:50:52.178Z,2.8
2019-02-12T02:51:55.317Z,2.8
2019-02-12T02:52:57.455Z,2.8
2019-02-12T02:53:59.839Z,2.8
2019-02-12T02:55:02.409Z,2.8
2019-02-12T02:56:04.543Z,2.8
2019-02-12T02:57:06.688Z,2.8
2019-02-12T02:58:09.494Z,2.8
2019-02-12T02:59:11.970Z,2.8
2019-02-12T03:00:14.363Z,2.8
2019-02-12T03:01:16.896Z,2.8
2019-02-12T03:02:19.050Z,2.8
2019-02-12T03:03:21.213Z,2.8
2019-02-12T03:04:23.607Z,2.8
2019-02-12T03:05:25.729Z,2.8
2019-02-12T03:06:27.879Z,2.8
2019-02-12T03:07:30.389Z,2.9
2019-02-12T03:08:32.898Z,2.9
2019-02-12T03:09:35.014Z,2.9
2019-02-12T03:10:37.462Z,2.9
2019-02-12T03:11:39.968Z,2.8
2019-02-12T03:12:42.760Z,2.8
2019-02-12T03:13:44.884Z,2.7
2019-02-12T03:14:47.334Z,2.7
2019-02-12T03:15:49.773Z,2.7
2019-02-12T03:16:51.883Z,2.7
2019-02-12T03:17:54.388Z,2.8
2019-02-12T03:18:56.820Z,2.8
2019-02-12T03:19:59.237Z,2.7
2019-02-12T03:21:02.027Z,2.8
2019-02-12T03:22:05.366Z,2.7
2019-02-12T03:23:07.483Z,2.7
2019-02-12T03:24:09.869Z,2.7
2019-02-12T03:25:12.425Z,2.7
2019-02-12T03:26:15.126Z,2.7
2019-02-12T03:27:17.241Z,2.7
2019-02-12T03:28:19.649Z,2.7
2019-02-12T03:29:22.661Z,2.7
2019-02-12T03:30:25.458Z,2.8
2019-02-12T03:31:28.083Z,2.7
2019-02-12T03:32:31.236Z,2.7
2019-02-12T03:33:33.646Z,2.8
2019-02-12T03:34:35.776Z,2.8
2019-02-12T03:35:37.912Z,2.7
2019-02-12T03:36:40.048Z,2.7
2019-02-12T03:37:42.455Z,2.7
2019-02-12T03:38:44.573Z,2.7
2019-02-12T03:39:46.968Z,2.7
2019-02-12T03:40:50.050Z,2.7
2019-02-12T03:41:52.489Z,2.7
2019-02-12T03:42:54.598Z,2.7
2019-02-12T03:43:57.038Z,2.7
2019-02-12T03:44:59.143Z,2.7
2019-02-12T03:46:01.662Z,2.8
2019-02-12T03:47:03.790Z,2.8
2019-02-12T03:48:06.187Z,2.8
2019-02-12T03:49:08.913Z,2.8
2019-02-12T03:50:11.006Z,2.8
2019-02-12T03:51:13.477Z,2.8
2019-02-12T03:52:16.005Z,2.8
2019-02-12T03:53:18.133Z,2.8
2019-02-12T03:54:20.242Z,2.8
2019-02-12T03:55:22.659Z,2.8
2019-02-12T03:56:25.066Z,2.8
2019-02-12T03:57:27.167Z,2.8
2019-02-12T03:58:29.294Z,2.8
2019-02-12T03:59:31.413Z,2.8
2019-02-12T04:00:33.523Z,2.8
2019-02-12T04:01:36.384Z,2.8
2019-02-12T04:02:38.565Z,2.8
2019-02-12T04:03:40.674Z,2.8
2019-02-12T04:04:43.193Z,2.8
2019-02-12T04:05:45.332Z,2.8
2019-02-12T04:06:47.451Z,2.8
2019-02-12T04:07:50.258Z,2.8
2019-02-12T04:08:52.384Z,2.8
2019-02-12T04:09:54.862Z,2.8
2019-02-12T04:10:56.992Z,2.8
2019-02-12T04:11:59.513Z,2.9
2019-02-12T04:13:01.618Z,2.9
2019-02-12T04:14:03.750Z,2.9
2019-02-12T04:15:05.871Z,2.9
2019-02-12T04:16:08.103Z,2.9
2019-02-12T04:17:10.220Z,2.9
2019-02-12T04:18:12.352Z,2.9
2019-02-12T04:19:14.482Z,2.9
2019-02-12T04:20:16.958Z,2.9
2019-02-12T04:21:19.071Z,2.9
2019-02-12T04:22:24.281Z,2.9
2019-02-12T04:23:26.702Z,2.9
2019-02-12T04:24:28.815Z,2.9
2019-02-12T04:25:30.932Z,2.9
2019-02-12T04:26:33.340Z,2.9
2019-02-12T04:27:35.508Z,2.9
2019-02-12T04:28:37.640Z,2.9
2019-02-12T04:29:40.088Z,2.9
2019-02-12T04:30:42.200Z,2.9
2019-02-12T04:31:44.344Z,2.9
2019-02-12T04:32:46.455Z,2.9
2019-02-12T04:33:48.952Z,2.9
2019-02-12T04:34:51.074Z,2.9
2019-02-12T04:35:53.218Z,2.9
2019-02-12T04:36:55.683Z,2.9
2019-02-12T04:37:58.774Z,2.9
2019-02-12T04:39:00.900Z,2.9
2019-02-12T04:40:03.412Z,2.9
2019-02-12T04:41:05.834Z,2.9
2019-02-12T04:42:07.972Z,2.9
2019-02-12T04:43:10.348Z,2.9
2019-02-12T04:44:12.854Z,2.9
2019-02-12T04:45:15.377Z,2.9
2019-02-12T04:46:17.791Z,2.9
2019-02-12T04:47:19.936Z,2.9
2019-02-12T04:48:22.642Z,2.9
2019-02-12T04:49:24.755Z,2.9
2019-02-12T04:50:26.869Z,2.9
2019-02-12T04:51:29.749Z,2.9
2019-02-12T04:52:33.365Z,2.9
2019-02-12T04:53:35.496Z,2.9
2019-02-12T04:54:37.621Z,2.9
2019-02-12T04:55:39.723Z,2.9
2019-02-12T04:56:41.858Z,2.9
2019-02-12T04:57:43.977Z,2.9
2019-02-12T04:58:46.492Z,2.9
2019-02-12T04:59:48.601Z,2.9
2019-02-12T05:00:50.740Z,2.9
2019-02-12T05:01:52.865Z,2.9
2019-02-12T05:02:54.984Z,2.9
2019-02-12T05:03:57.941Z,2.9
2019-02-12T05:05:00.050Z,2.9
2019-02-12T05:06:02.596Z,2.9
2019-02-12T05:07:05.129Z,2.9
2019-02-12T05:08:07.274Z,2.9
2019-02-12T05:09:09.684Z,2.9
2019-02-12T05:10:12.472Z,2.9
2019-02-12T05:11:14.574Z,2.9
2019-02-12T05:12:16.749Z,2.8
2019-02-12T05:13:18.875Z,2.9
2019-02-12T05:14:21.044Z,2.9
2019-02-12T05:15:23.757Z,2.9
2019-02-12T05:16:26.177Z,2.9
2019-02-12T05:17:28.298Z,2.9
2019-02-12T05:18:30.455Z,2.9
2019-02-12T05:19:32.585Z,2.9
2019-02-12T05:20:35.382Z,2.9
2019-02-12T05:21:37.512Z,2.9
2019-02-12T05:22:45.277Z,2.9
2019-02-12T05:23:48.359Z,2.9
2019-02-12T05:24:50.864Z,2.9
2019-02-12T05:25:52.998Z,2.9
2019-02-12T05:26:55.115Z,2.9
2019-02-12T05:27:57.700Z,2.9
2019-02-12T05:28:59.834Z,2.9
2019-02-12T05:30:02.343Z,2.8
2019-02-12T05:31:04.775Z,2.8
2019-02-12T05:32:06.898Z,2.8
2019-02-12T05:33:09.319Z,2.9
2019-02-12T05:34:11.430Z,2.8
2019-02-12T05:35:13.857Z,2.9
2019-02-12T05:36:15.961Z,2.9
2019-02-12T05:37:18.101Z,2.8
2019-02-12T05:38:20.220Z,2.8
2019-02-12T05:39:23.059Z,2.8
2019-02-12T05:40:25.809Z,2.9
2019-02-12T05:41:27.930Z,2.9
2019-02-12T05:42:30.377Z,2.9
2019-02-12T05:43:32.790Z,2.8
2019-02-12T05:44:34.963Z,2.8
2019-02-12T05:45:37.701Z,2.8
2019-02-12T05:46:40.210Z,2.8
2019-02-12T05:47:43.044Z,2.8
2019-02-12T05:48:45.556Z,2.8
2019-02-12T05:49:47.718Z,2.7
2019-02-12T05:50:50.550Z,2.8
2019-02-12T05:51:52.686Z,2.7
2019-02-12T05:52:56.651Z,2.8
2019-02-12T05:53:58.779Z,2.7
2019-02-12T05:55:01.326Z,2.7
2019-02-12T05:56:03.496Z,2.7
2019-02-12T05:57:05.962Z,2.7
2019-02-12T05:58:08.380Z,2.7
2019-02-12T05:59:10.530Z,2.7
2019-02-12T06:00:12.692Z,2.7
2019-02-12T06:01:15.092Z,2.7
2019-02-12T06:02:17.807Z,2.7
2019-02-12T06:03:19.931Z,2.7
2019-02-12T06:04:22.050Z,2.6
2019-02-12T06:05:24.571Z,2.6
2019-02-12T06:06:27.370Z,2.6
2019-02-12T06:07:29.770Z,2.5
2019-02-12T06:08:32.599Z,2.6
2019-02-12T06:09:34.734Z,2.5
2019-02-12T06:10:37.143Z,2.5
2019-02-12T06:11:39.280Z,2.4
2019-02-12T06:12:41.430Z,2.4
2019-02-12T06:13:43.574Z,2.4
2019-02-12T06:14:46.008Z,2.4
2019-02-12T06:15:48.618Z,2.4
2019-02-12T06:16:50.776Z,2.4
2019-02-12T06:17:53.194Z,2.4
2019-02-12T06:18:55.312Z,2.4
2019-02-12T06:19:57.455Z,2.4
2019-02-12T06:20:59.856Z,2.4
2019-02-12T06:22:02.020Z,2.4
2019-02-12T06:23:05.936Z,2.3
2019-02-12T06:24:08.380Z,2.3
2019-02-12T06:25:11.687Z,2.3
2019-02-12T06:26:14.522Z,2.3
2019-02-12T06:27:16.912Z,2.3
2019-02-12T06:28:19.035Z,2.3
2019-02-12T06:29:21.147Z,2.3
2019-02-12T06:30:23.566Z,2.3
2019-02-12T06:31:26.372Z,2.3
2019-02-12T06:32:29.138Z,2.3
2019-02-12T06:33:31.533Z,2.3
2019-02-12T06:34:33.929Z,2.2
2019-02-12T06:35:36.065Z,2.2
2019-02-12T06:36:38.561Z,2.2
2019-02-12T06:37:40.682Z,2.2
2019-02-12T06:38:42.793Z,2.2
2019-02-12T06:39:45.350Z,2.2
2019-02-12T06:40:48.142Z,2.3
2019-02-12T06:41:50.276Z,2.3
2019-02-12T06:42:52.996Z,2.2
2019-02-12T06:43:55.517Z,2.2
2019-02-12T06:44:58.335Z,2.3
2019-02-12T06:46:00.861Z,2.3
2019-02-12T06:47:03.267Z,2.3
2019-02-12T06:48:05.675Z,2.3
2019-02-12T06:49:08.382Z,2.3
2019-02-12T06:50:10.786Z,2.2
2019-02-12T06:51:12.891Z,2.2
2019-02-12T06:52:15.011Z,2.3
2019-02-12T06:53:17.519Z,2.3
2019-02-12T06:54:19.641Z,2.3
2019-02-12T06:55:22.430Z,2.3
2019-02-12T06:56:24.556Z,2.3
2019-02-12T06:57:26.672Z,2.3
2019-02-12T06:58:28.780Z,2.3
2019-02-12T06:59:30.905Z,2.4
2019-02-12T07:00:33.015Z,2.4
2019-02-12T07:01:35.150Z,2.4
2019-02-12T07:02:37.273Z,2.5
2019-02-12T07:03:39.681Z,2.5
2019-02-12T07:04:41.775Z,2.4
2019-02-12T07:05:44.310Z,2.4
2019-02-12T07:06:46.818Z,2.4
2019-02-12T07:07:49.318Z,2.5
2019-02-12T07:08:51.766Z,2.4
2019-02-12T07:09:54.329Z,2.4
2019-02-12T07:10:56.453Z,2.5
2019-02-12T07:11:58.879Z,2.5
2019-02-12T07:13:03.792Z,2.5
2019-02-12T07:14:06.800Z,2.5
2019-02-12T07:15:08.956Z,2.4
2019-02-12T07:16:11.360Z,2.4
2019-02-12T07:17:13.467Z,2.4
2019-02-12T07:18:15.591Z,2.4
2019-02-12T07:19:17.706Z,2.4
2019-02-12T07:20:20.195Z,2.4
2019-02-12T07:21:22.308Z,2.4
2019-02-12T07:22:25.230Z,2.4
2019-02-12T07:23:28.207Z,2.4
2019-02-12T07:24:30.685Z,2.4
2019-02-12T07:25:32.806Z,2.4
2019-02-12T07:26:35.883Z,2.4
2019-02-12T07:27:38.039Z,2.4
2019-02-12T07:28:40.166Z,2.4
2019-02-12T07:29:43.237Z,2.4
2019-02-12T07:30:45.350Z,2.4
2019-02-12T07:31:47.466Z,2.5
2019-02-12T07:32:49.570Z,2.5
2019-02-12T07:33:52.501Z,2.5
2019-02-12T07:34:54.906Z,2.5
2019-02-12T07:35:57.022Z,2.6
2019-02-12T07:36:59.567Z,2.6
2019-02-12T07:38:01.699Z,2.7
2019-02-12T07:39:03.805Z,2.7
2019-02-12T07:40:06.201Z,2.8
2019-02-12T07:41:08.634Z,2.8
2019-02-12T07:42:12.142Z,2.9
2019-02-12T07:43:14.277Z,2.8
2019-02-12T07:44:16.389Z,2.9
2019-02-12T07:45:18.872Z,3
2019-02-12T07:46:20.973Z,3
2019-02-12T07:47:23.692Z,3
2019-02-12T07:48:27.068Z,3
2019-02-12T07:49:29.483Z,3.1
2019-02-12T07:50:31.605Z,3.2
2019-02-12T07:51:34.041Z,3.3
2019-02-12T07:52:36.177Z,3.3
2019-02-12T07:53:38.974Z,3.3
2019-02-12T07:54:41.377Z,3.3
2019-02-12T07:55:44.222Z,3.4
2019-02-12T07:56:46.373Z,3.4
2019-02-12T07:57:48.763Z,3.5
2019-02-12T07:58:50.877Z,3.5
2019-02-12T07:59:54.372Z,3.6
2019-02-12T08:00:56.901Z,3.5
2019-02-12T08:01:59.574Z,3.5
2019-02-12T08:03:01.719Z,3.3
2019-02-12T08:04:03.831Z,3.3
2019-02-12T08:05:06.344Z,3.5
2019-02-12T08:06:09.144Z,3.6
2019-02-12T08:07:11.289Z,3.8
2019-02-12T08:08:13.697Z,3.8
2019-02-12T08:09:16.806Z,3.8
2019-02-12T08:10:19.310Z,3.7
2019-02-12T08:11:21.444Z,3.5
2019-02-12T08:12:23.885Z,3.8
2019-02-12T08:13:26.578Z,3.9
2019-02-12T08:14:28.705Z,3.9
2019-02-12T08:15:31.493Z,4.1
2019-02-12T08:16:33.936Z,4
2019-02-12T08:17:36.465Z,4.2
2019-02-12T08:18:38.997Z,4.1
2019-02-12T08:19:42.104Z,4.2
2019-02-12T08:20:45.195Z,4.1
2019-02-12T08:21:47.878Z,4.3
2019-02-12T08:22:50.574Z,4.2
2019-02-12T08:23:52.715Z,4.2
2019-02-12T08:24:54.838Z,4.3
2019-02-12T08:25:56.979Z,4.3
2019-02-12T08:26:59.397Z,4.4
2019-02-12T08:28:02.235Z,4.6
2019-02-12T08:29:05.139Z,4.5
2019-02-12T08:30:07.569Z,4.6
2019-02-12T08:31:09.699Z,4.6
2019-02-12T08:32:12.497Z,4.5
2019-02-12T08:33:14.638Z,4.5
2019-02-12T08:34:17.052Z,4.5
2019-02-12T08:35:19.753Z,4.6
2019-02-12T08:36:22.606Z,4.7
2019-02-12T08:37:25.139Z,4.7
2019-02-12T08:38:27.855Z,4.8
2019-02-12T08:39:29.990Z,4.6
2019-02-12T08:40:32.101Z,4.8
2019-02-12T08:41:34.524Z,4.8
2019-02-12T08:42:37.110Z,4.9
2019-02-12T08:43:42.876Z,4.7
2019-02-12T08:44:46.891Z,4.5
2019-02-12T08:45:49.304Z,4.7
2019-02-12T08:46:53.878Z,4.5
2019-02-12T08:47:56.335Z,4.9
2019-02-12T08:48:58.833Z,4.9
2019-02-12T08:50:01.962Z,5.2
2019-02-12T08:51:05.079Z,5.2
2019-02-12T08:52:07.330Z,5.3
2019-02-12T08:53:09.731Z,5.2
2019-02-12T08:54:11.875Z,5.3
2019-02-12T08:55:14.004Z,5.4
2019-02-12T08:56:16.132Z,5.1
2019-02-12T08:57:18.593Z,5.3
2019-02-12T08:58:21.099Z,5.1
2019-02-12T08:59:23.506Z,5.4
2019-02-12T09:00:26.355Z,5.4
2019-02-12T09:01:29.068Z,5.3
2019-02-12T09:02:31.234Z,5.2
2019-02-12T09:03:33.806Z,5.6
2019-02-12T09:04:36.322Z,5.8
2019-02-12T09:05:38.744Z,5.9
2019-02-12T09:06:40.905Z,5.8
2019-02-12T09:07:43.348Z,5.4
2019-02-12T09:08:45.469Z,5.7
2019-02-12T09:09:48.002Z,5.8
2019-02-12T09:10:50.423Z,5.9
2019-02-12T09:11:52.542Z,6
2019-02-12T09:12:55.643Z,6
2019-02-12T09:13:58.147Z,5.9
2019-02-12T09:15:01.310Z,6
2019-02-12T09:16:04.621Z,6.1
2019-02-12T09:17:07.064Z,5.9
2019-02-12T09:18:09.178Z,6
2019-02-12T09:19:11.629Z,5.8
2019-02-12T09:20:14.058Z,5.9
2019-02-12T09:21:16.473Z,6.1
2019-02-12T09:22:18.886Z,6.3
2019-02-12T09:23:21.023Z,6.1
2019-02-12T09:24:23.443Z,6.5
2019-02-12T09:25:25.575Z,6.3
2019-02-12T09:26:27.683Z,6.3
2019-02-12T09:27:29.819Z,6.5
2019-02-12T09:28:31.951Z,6.5
2019-02-12T09:29:34.671Z,6.6
2019-02-12T09:30:37.926Z,6.6
2019-02-12T09:31:40.713Z,6.6
2019-02-12T09:32:43.565Z,6.7
2019-02-12T09:33:46.029Z,6.6
2019-02-12T09:34:48.473Z,6.3
2019-02-12T09:35:51.273Z,6.5
2019-02-12T09:36:53.489Z,6.6
2019-02-12T09:37:55.607Z,6.1
2019-02-12T09:38:57.732Z,6.4
2019-02-12T09:39:59.864Z,6.7
2019-02-12T09:41:02.027Z,7
2019-02-12T09:42:04.440Z,6.7
2019-02-12T09:43:06.589Z,6.8
2019-02-12T09:44:09.018Z,7
2019-02-12T09:45:11.427Z,7
2019-02-12T09:46:14.160Z,6.6
2019-02-12T09:47:16.559Z,6.9
2019-02-12T09:48:18.764Z,6.6
2019-02-12T09:49:21.204Z,6.8
2019-02-12T09:50:23.732Z,7.1
2019-02-12T09:51:25.856Z,6.9
2019-02-12T09:52:27.998Z,7.1
2019-02-12T09:53:30.173Z,6.5
2019-02-12T09:54:32.293Z,6.5
2019-02-12T09:55:34.949Z,6.4
2019-02-12T09:56:37.062Z,6.6
2019-02-12T09:57:39.755Z,6.7
2019-02-12T09:58:41.928Z,6.6
2019-02-12T09:59:44.439Z,6.9
2019-02-12T10:00:46.578Z,6.9
2019-02-12T10:01:49.026Z,6.9
2019-02-12T10:02:51.465Z,6.9
2019-02-12T10:03:54.262Z,6.6
2019-02-12T10:04:56.703Z,6.6
2019-02-12T10:05:58.854Z,6.9
2019-02-12T10:07:02.162Z,6.8
2019-02-12T10:08:04.992Z,6.9
2019-02-12T10:09:07.136Z,7.2
2019-02-12T10:10:09.827Z,7.2
2019-02-12T10:11:11.970Z,7.2
2019-02-12T10:12:14.107Z,7
2019-02-12T10:13:16.225Z,6.3
2019-02-12T10:14:18.356Z,6.9
2019-02-12T10:15:20.799Z,6.8
2019-02-12T10:16:23.895Z,6.9
2019-02-12T10:17:26.030Z,7
2019-02-12T10:18:28.460Z,7.2
2019-02-12T10:19:30.587Z,7.2
2019-02-12T10:20:32.885Z,7.4
2019-02-12T10:21:35.012Z,7.5
2019-02-12T10:22:37.144Z,7.4
2019-02-12T10:23:39.335Z,7.2
2019-02-12T10:24:42.216Z,6.8
2019-02-12T10:25:44.636Z,6.5
2019-02-12T10:26:47.091Z,7.4
2019-02-12T10:27:49.617Z,7.2
2019-02-12T10:28:51.754Z,7.3
2019-02-12T10:29:53.894Z,7.1
2019-02-12T10:30:56.317Z,7.2
2019-02-12T10:31:58.751Z,7.5
2019-02-12T10:33:10.309Z,7.3
2019-02-12T10:34:12.813Z,7.2
2019-02-12T10:35:15.256Z,7.1
2019-02-12T10:36:18.068Z,7.2
2019-02-12T10:37:20.206Z,7.4
2019-02-12T10:38:22.339Z,7.4
2019-02-12T10:39:24.878Z,7.2
2019-02-12T10:40:28.267Z,7.3
2019-02-12T10:41:30.988Z,7.3
2019-02-12T10:42:33.737Z,7.5
2019-02-12T10:43:36.175Z,7.9
2019-02-12T10:44:38.619Z,7.7
2019-02-12T10:45:40.747Z,7.4
2019-02-12T10:46:42.867Z,7.2
2019-02-12T10:47:45.278Z,7.7
2019-02-12T10:48:47.426Z,7.7
2019-02-12T10:49:50.294Z,8
2019-02-12T10:50:52.724Z,8
2019-02-12T10:51:54.862Z,7.2
2019-02-12T10:52:57.286Z,7.9
2019-02-12T10:53:59.750Z,7.9
2019-02-12T10:55:01.898Z,8
2019-02-12T10:56:06.081Z,8.3
2019-02-12T10:57:08.213Z,8.2
2019-02-12T10:58:10.368Z,8.3
2019-02-12T10:59:15.161Z,8.3
2019-02-12T11:00:17.289Z,8.5
2019-02-12T11:01:19.430Z,8.3
2019-02-12T11:02:21.541Z,8.6
2019-02-12T11:03:23.682Z,8.2
2019-02-12T11:04:25.828Z,8.1
2019-02-12T11:05:27.970Z,8.1
2019-02-12T11:06:30.475Z,8.5
2019-02-12T11:07:32.627Z,9
2019-02-12T11:08:34.742Z,7.8
2019-02-12T11:09:36.870Z,8.2
2019-02-12T11:10:39.011Z,8.7
2019-02-12T11:11:41.512Z,8.9
2019-02-12T11:12:43.660Z,8.4
2019-02-12T11:13:45.815Z,7.8
2019-02-12T11:14:47.938Z,7.9
2019-02-12T11:15:50.067Z,7.9
2019-02-12T11:16:52.197Z,8.1
2019-02-12T11:17:54.312Z,8
2019-02-12T11:18:56.826Z,8.4
2019-02-12T11:19:59.252Z,9
2019-02-12T11:21:01.378Z,9.1
2019-02-12T11:22:03.502Z,8.6
2019-02-12T11:23:05.642Z,8.9
2019-02-12T11:24:07.763Z,8.2
2019-02-12T11:25:09.904Z,8.2
2019-02-12T11:26:12.045Z,8.6
2019-02-12T11:27:14.171Z,8.8
2019-02-12T11:28:16.303Z,9.2
2019-02-12T11:29:18.438Z,9.6
2019-02-12T11:30:20.866Z,9.1
2019-02-12T11:31:22.976Z,8.6
2019-02-12T11:32:25.121Z,8.5
2019-02-12T11:33:27.530Z,8.4
2019-02-12T11:34:29.668Z,8.4
2019-02-12T11:35:32.109Z,8.7
2019-02-12T11:36:34.237Z,8.7
2019-02-12T11:37:36.367Z,8.4
2019-02-12T11:38:38.491Z,8.7
2019-02-12T11:39:40.631Z,9.2
2019-02-12T11:40:42.755Z,9.2
2019-02-12T11:41:44.889Z,9.7
2019-02-12T11:42:47.025Z,9.7
2019-02-12T11:43:49.461Z,9.2
2019-02-12T11:44:51.599Z,9.6
2019-02-12T11:45:53.731Z,9
2019-02-12T11:46:55.851Z,8.9
2019-02-12T11:47:58.385Z,8.6
2019-02-12T11:49:00.838Z,8.4
2019-02-12T11:50:02.967Z,8.6
2019-02-12T11:51:05.126Z,8.5
2019-02-12T11:52:07.286Z,8.6
2019-02-12T11:53:09.707Z,8.6
2019-02-12T11:54:11.838Z,8.4
2019-02-12T11:55:13.961Z,9
2019-02-12T11:56:16.110Z,9.2
2019-02-12T11:57:18.241Z,9.3
2019-02-12T11:58:20.691Z,8.8
2019-02-12T11:59:22.838Z,9.2
2019-02-12T12:00:24.953Z,9.5
2019-02-12T12:01:27.090Z,9.2
2019-02-12T12:02:29.220Z,9.3
2019-02-12T12:03:32.031Z,8.9
2019-02-12T12:04:34.535Z,9.3
2019-02-12T12:05:36.676Z,9.2
2019-02-12T12:06:38.810Z,8.9
2019-02-12T12:07:40.939Z,8.9
2019-02-12T12:08:43.082Z,9.3
2019-02-12T12:09:45.205Z,9.3
2019-02-12T12:10:47.336Z,9.5
2019-02-12T12:11:49.463Z,9.7
2019-02-12T12:12:51.625Z,9.3
2019-02-12T12:13:53.753Z,9.5
2019-02-12T12:14:55.929Z,9.3
2019-02-12T12:15:58.351Z,9.4
2019-02-12T12:17:00.464Z,9.2
2019-02-12T12:18:03.017Z,9
2019-02-12T12:19:05.150Z,9.5
2019-02-12T12:20:07.266Z,9.4
2019-02-12T12:21:09.399Z,8.9
2019-02-12T12:22:11.541Z,8.7
2019-02-12T12:23:13.664Z,9.1
2019-02-12T12:24:15.809Z,8.9
2019-02-12T12:25:17.941Z,8.9
2019-02-12T12:26:20.056Z,8.9
2019-02-12T12:27:22.191Z,9.1
2019-02-12T12:28:24.330Z,9.1
2019-02-12T12:29:26.443Z,9.5
2019-02-12T12:30:28.852Z,8.7
2019-02-12T12:31:30.984Z,8.9
2019-02-12T12:32:33.100Z,8.9
2019-02-12T12:33:35.247Z,9.1
2019-02-12T12:34:37.370Z,9.3
2019-02-12T12:35:39.511Z,9.3
2019-02-12T12:36:41.632Z,9.3
2019-02-12T12:37:44.062Z,9
2019-02-12T12:38:46.177Z,9.2
2019-02-12T12:39:48.303Z,9.2
2019-02-12T12:40:50.880Z,9.1
2019-02-12T12:41:52.988Z,9.7
2019-02-12T12:42:55.143Z,9.4
2019-02-12T12:43:57.326Z,9.1
2019-02-12T12:44:59.858Z,8.9
2019-02-12T12:46:02.422Z,9.1
2019-02-12T12:47:04.570Z,8.8
2019-02-12T12:48:07.008Z,9
2019-02-12T12:49:09.160Z,9.2
2019-02-12T12:50:11.321Z,8.8
2019-02-12T12:51:13.839Z,8.8
2019-02-12T12:52:16.032Z,9
2019-02-12T12:53:18.184Z,9.2
2019-02-12T12:54:20.611Z,8.8
2019-02-12T12:55:23.044Z,8.8
2019-02-12T12:56:25.193Z,9.1
2019-02-12T12:57:27.360Z,9.3
2019-02-12T12:58:29.537Z,9.6
2019-02-12T12:59:31.697Z,9.8
2019-02-12T13:00:34.231Z,9.5
2019-02-12T13:01:37.059Z,9.6
2019-02-12T13:02:39.241Z,9.4
2019-02-12T13:03:41.387Z,8.8
2019-02-12T13:04:43.799Z,9
2019-02-12T13:05:45.933Z,9.3
2019-02-12T13:06:48.048Z,9.1
2019-02-12T13:07:50.192Z,8.9
2019-02-12T13:08:52.322Z,9.1
2019-02-12T13:09:54.459Z,9.1
2019-02-12T13:10:56.597Z,9.4
2019-02-12T13:11:58.715Z,9
2019-02-12T13:13:00.862Z,8.4
2019-02-12T13:14:03.422Z,8.7
2019-02-12T13:15:05.534Z,8.8
2019-02-12T13:16:08.071Z,8.8
2019-02-12T13:17:12.221Z,8.8
2019-02-12T13:18:14.361Z,8.6
2019-02-12T13:19:16.482Z,8.5
2019-02-12T13:20:18.941Z,8.6
2019-02-12T13:21:21.352Z,8.5
2019-02-12T13:22:23.472Z,8.5
2019-02-12T13:23:25.617Z,8.6
2019-02-12T13:24:27.727Z,8.8
2019-02-12T13:25:29.867Z,8.5
2019-02-12T13:26:32.016Z,8.6
2019-02-12T13:27:34.435Z,8.7
2019-02-12T13:28:36.552Z,8.7
2019-02-12T13:29:38.682Z,8.5
2019-02-12T13:30:40.825Z,7.8
2019-02-12T13:31:42.954Z,7.7
2019-02-12T13:32:45.094Z,7.6
2019-02-12T13:33:47.585Z,8.1
2019-02-12T13:34:49.712Z,7.9
2019-02-12T13:35:52.135Z,8
2019-02-12T13:36:54.252Z,8
2019-02-12T13:37:56.810Z,8.2
2019-02-12T13:38:58.975Z,8
2019-02-12T13:40:01.678Z,8
2019-02-12T13:41:03.812Z,7.8
2019-02-12T13:42:06.238Z,7.7
2019-02-12T13:43:08.652Z,7.8
2019-02-12T13:44:10.773Z,7.6
2019-02-12T13:45:13.468Z,7.6
2019-02-12T13:46:15.655Z,7.5
2019-02-12T13:47:17.773Z,7.5
2019-02-12T13:48:19.897Z,7.3
2019-02-12T13:49:22.034Z,7.3
2019-02-12T13:50:24.552Z,7.3
2019-02-12T13:51:26.681Z,7.3
2019-02-12T13:52:28.812Z,7
2019-02-12T13:53:31.265Z,7.2
2019-02-12T13:54:33.393Z,7.2
2019-02-12T13:55:35.527Z,7.2
2019-02-12T13:56:37.670Z,7.5
2019-02-12T13:57:39.785Z,7.3
2019-02-12T13:58:41.963Z,7.3
2019-02-12T13:59:44.108Z,7.3
2019-02-12T14:00:46.253Z,7.5
2019-02-12T14:01:48.367Z,7.4
2019-02-12T14:02:50.505Z,7.4
2019-02-12T14:03:53.742Z,7.5
2019-02-12T14:04:55.874Z,7.4
2019-02-12T14:05:59.017Z,7.3
2019-02-12T14:07:01.543Z,7.2
2019-02-12T14:08:05.668Z,7.4
2019-02-12T14:09:08.171Z,7.3
2019-02-12T14:10:10.683Z,7.4
2019-02-12T14:11:13.104Z,7.2
2019-02-12T14:12:16.950Z,7.1
2019-02-12T14:13:19.054Z,7.2
2019-02-12T14:14:21.186Z,7
2019-02-12T14:15:23.589Z,7.1
2019-02-12T14:16:25.727Z,7.1
2019-02-12T14:17:27.834Z,7.1
2019-02-12T14:18:30.029Z,7.2
2019-02-12T14:19:32.156Z,7
2019-02-12T14:20:34.659Z,7
2019-02-12T14:21:36.798Z,6.9
2019-02-12T14:22:39.197Z,6.9